DLH9EE EDDF-LIMC
Flight info
| Callsign | DLH9EE |
|---|---|
| Flight time | 0h 57m |
| Altitude | 31000 |
| Route | ANEKI2L ANEKI Y163 HERBI/N0415F330 Y163 NATOR DCT DITON DCT BASGO Z424 RIXUV |
| Aircraft | A320/M-SDE2E3FGIJ1LORWXYZ/HB1 |
Departure
| Time | 2026-05-05 07:24 |
|---|---|
| Airport | Frankfurt Main Airport (EDDF) |
Arrival
| Time | 2026-05-05 08:21 |
|---|---|
| Airport | Milan Malpensa International Airport (LIMC) |
| Time | Latitude | Longitude | Altitude | Speed | Heading |
|---|---|---|---|---|---|
| 2026-05-05 06:49 | 50.03650 | 8.53946 | 345 ft | 0 kts | 160° |
| 2026-05-05 07:18 | 50.03647 | 8.53948 | 345 ft | 2 kts | 160° |
| 2026-05-05 07:19 | 50.03610 | 8.53969 | 343 ft | 8 kts | 160° |
| 2026-05-05 07:19 | 50.03562 | 8.53917 | 342 ft | 10 kts | 252° |
| 2026-05-05 07:19 | 50.03549 | 8.53859 | 343 ft | 0 kts | 250° |
| 2026-05-05 07:21 | 50.03543 | 8.53830 | 343 ft | 10 kts | 251° |
| 2026-05-05 07:22 | 50.03503 | 8.53667 | 344 ft | 16 kts | 250° |
| 2026-05-05 07:22 | 50.03461 | 8.53490 | 343 ft | 18 kts | 251° |
| 2026-05-05 07:22 | 50.03416 | 8.53300 | 339 ft | 18 kts | 250° |
| 2026-05-05 07:22 | 50.03368 | 8.53101 | 336 ft | 20 kts | 250° |
| 2026-05-05 07:23 | 50.03320 | 8.52897 | 337 ft | 19 kts | 249° |
| 2026-05-05 07:23 | 50.03269 | 8.52692 | 336 ft | 20 kts | 241° |
| 2026-05-05 07:23 | 50.03148 | 8.52595 | 334 ft | 21 kts | 181° |
| 2026-05-05 07:23 | 50.02774 | 8.52600 | 328 ft | 92 kts | 180° |
| 2026-05-05 07:24 | 50.01897 | 8.52612 | 397 ft | 149 kts | 180° |
| 2026-05-05 07:24 | 50.00858 | 8.52606 | 1003 ft | 152 kts | 182° |
| 2026-05-05 07:24 | 49.99789 | 8.52589 | 1687 ft | 157 kts | 180° |
| 2026-05-05 07:24 | 49.98689 | 8.52678 | 2374 ft | 164 kts | 178° |
| 2026-05-05 07:25 | 49.97515 | 8.52790 | 2929 ft | 180 kts | 177° |
| 2026-05-05 07:25 | 49.96205 | 8.52905 | 3505 ft | 197 kts | 177° |
| 2026-05-05 07:25 | 49.94759 | 8.53021 | 3913 ft | 220 kts | 178° |
| 2026-05-05 07:25 | 49.92539 | 8.53186 | 4541 ft | 253 kts | 178° |
| 2026-05-05 07:26 | 49.91405 | 8.53266 | 5357 ft | 247 kts | 178° |
| 2026-05-05 07:26 | 49.89762 | 8.53379 | 6597 ft | 238 kts | 178° |
| 2026-05-05 07:26 | 49.88127 | 8.53490 | 7613 ft | 237 kts | 179° |
| 2026-05-05 07:26 | 49.86479 | 8.53601 | 8542 ft | 240 kts | 179° |
| 2026-05-05 07:27 | 49.84827 | 8.53711 | 9435 ft | 243 kts | 179° |
| 2026-05-05 07:27 | 49.83146 | 8.53822 | 10320 ft | 246 kts | 179° |
| 2026-05-05 07:27 | 49.81440 | 8.53938 | 11174 ft | 249 kts | 179° |
| 2026-05-05 07:27 | 49.79722 | 8.54054 | 11992 ft | 252 kts | 179° |
| 2026-05-05 07:28 | 49.77397 | 8.54045 | 13041 ft | 256 kts | 185° |
| 2026-05-05 07:28 | 49.76189 | 8.53902 | 13410 ft | 265 kts | 186° |
| 2026-05-05 07:28 | 49.73639 | 8.53562 | 13972 ft | 289 kts | 186° |
| 2026-05-05 07:28 | 49.72292 | 8.53381 | 14241 ft | 300 kts | 186° |
| 2026-05-05 07:29 | 49.70147 | 8.53091 | 14662 ft | 316 kts | 186° |
| 2026-05-05 07:29 | 49.67949 | 8.52800 | 15338 ft | 322 kts | 186° |
| 2026-05-05 07:29 | 49.65724 | 8.52505 | 16104 ft | 324 kts | 186° |
| 2026-05-05 07:29 | 49.63476 | 8.52210 | 16854 ft | 326 kts | 186° |
| 2026-05-05 07:30 | 49.60468 | 8.51815 | 17794 ft | 329 kts | 186° |
| 2026-05-05 07:30 | 49.56648 | 8.51312 | 18892 ft | 335 kts | 186° |
| 2026-05-05 07:30 | 49.54327 | 8.51008 | 19515 ft | 339 kts | 186° |
| 2026-05-05 07:31 | 49.51977 | 8.50702 | 20133 ft | 342 kts | 186° |
| 2026-05-05 07:31 | 49.49579 | 8.50388 | 20734 ft | 346 kts | 186° |
| 2026-05-05 07:31 | 49.47183 | 8.50074 | 21315 ft | 350 kts | 186° |
| 2026-05-05 07:31 | 49.44754 | 8.49756 | 21914 ft | 353 kts | 186° |
| 2026-05-05 07:32 | 49.42318 | 8.49437 | 22484 ft | 356 kts | 186° |
| 2026-05-05 07:32 | 49.39856 | 8.49115 | 23054 ft | 358 kts | 186° |
| 2026-05-05 07:32 | 49.37369 | 8.48789 | 23604 ft | 362 kts | 186° |
| 2026-05-05 07:32 | 49.34831 | 8.48457 | 24159 ft | 365 kts | 186° |
| 2026-05-05 07:33 | 49.31469 | 8.48019 | 24891 ft | 368 kts | 186° |
| 2026-05-05 07:33 | 49.29772 | 8.47798 | 25246 ft | 370 kts | 186° |
| 2026-05-05 07:33 | 49.27214 | 8.47467 | 25782 ft | 372 kts | 186° |
| 2026-05-05 07:33 | 49.24634 | 8.47131 | 26314 ft | 374 kts | 186° |
| 2026-05-05 07:34 | 49.21184 | 8.46684 | 27006 ft | 376 kts | 187° |
| 2026-05-05 07:34 | 49.19460 | 8.46459 | 27340 ft | 377 kts | 187° |
| 2026-05-05 07:34 | 49.16842 | 8.46118 | 27816 ft | 379 kts | 187° |
| 2026-05-05 07:34 | 49.14217 | 8.45777 | 28266 ft | 382 kts | 187° |
| 2026-05-05 07:35 | 49.11585 | 8.45437 | 28734 ft | 383 kts | 187° |
| 2026-05-05 07:35 | 49.08924 | 8.45087 | 29337 ft | 380 kts | 188° |
| 2026-05-05 07:35 | 49.06321 | 8.44576 | 29897 ft | 379 kts | 191° |
| 2026-05-05 07:35 | 49.02891 | 8.43546 | 30416 ft | 381 kts | 194° |
| 2026-05-05 07:36 | 49.00291 | 8.42635 | 30792 ft | 383 kts | 194° |
| 2026-05-05 07:36 | 48.97701 | 8.41738 | 30872 ft | 384 kts | 194° |
| 2026-05-05 07:36 | 48.93377 | 8.40238 | 30872 ft | 385 kts | 194° |
| 2026-05-05 07:37 | 48.88172 | 8.38433 | 30867 ft | 384 kts | 194° |
| 2026-05-05 07:37 | 48.82932 | 8.36619 | 30872 ft | 384 kts | 194° |
| 2026-05-05 07:38 | 48.77743 | 8.34812 | 30873 ft | 384 kts | 194° |
| 2026-05-05 07:38 | 48.71700 | 8.32601 | 30869 ft | 383 kts | 194° |
| 2026-05-05 07:39 | 48.67347 | 8.31008 | 31094 ft | 392 kts | 194° |
| 2026-05-05 07:39 | 48.64716 | 8.30047 | 31448 ft | 394 kts | 193° |
| 2026-05-05 07:39 | 48.62022 | 8.29067 | 31829 ft | 395 kts | 194° |
| 2026-05-05 07:40 | 48.58487 | 8.27782 | 32359 ft | 395 kts | 194° |
| 2026-05-05 07:40 | 48.56728 | 8.27162 | 32679 ft | 393 kts | 192° |
| 2026-05-05 07:40 | 48.54018 | 8.26411 | 32880 ft | 393 kts | 189° |
| 2026-05-05 07:40 | 48.51334 | 8.25927 | 32882 ft | 392 kts | 186° |
| 2026-05-05 07:41 | 48.44988 | 8.25768 | 32878 ft | 393 kts | 179° |
| 2026-05-05 07:41 | 48.39571 | 8.26713 | 32881 ft | 393 kts | 173° |
| 2026-05-05 07:42 | 48.35077 | 8.27791 | 32881 ft | 393 kts | 173° |
| 2026-05-05 07:42 | 48.28807 | 8.29293 | 32880 ft | 393 kts | 173° |
| 2026-05-05 07:43 | 48.24329 | 8.30367 | 32881 ft | 392 kts | 173° |
| 2026-05-05 07:43 | 48.18025 | 8.31763 | 32883 ft | 391 kts | 175° |
| 2026-05-05 07:44 | 48.12630 | 8.32172 | 32882 ft | 390 kts | 181° |
| 2026-05-05 07:44 | 48.07215 | 8.32254 | 32879 ft | 390 kts | 180° |
| 2026-05-05 07:45 | 48.02723 | 8.32327 | 32885 ft | 389 kts | 180° |
| 2026-05-05 07:45 | 47.96420 | 8.32420 | 32888 ft | 389 kts | 180° |
| 2026-05-05 07:46 | 47.91029 | 8.32497 | 32890 ft | 389 kts | 180° |
| 2026-05-05 07:46 | 47.85637 | 8.32575 | 32890 ft | 389 kts | 180° |
| 2026-05-05 07:47 | 47.80234 | 8.32649 | 32893 ft | 390 kts | 180° |
| 2026-05-05 07:47 | 47.74820 | 8.32724 | 32898 ft | 389 kts | 180° |
| 2026-05-05 07:48 | 47.69411 | 8.32800 | 32897 ft | 389 kts | 180° |
| 2026-05-05 07:48 | 47.64025 | 8.32876 | 32899 ft | 389 kts | 180° |
| 2026-05-05 07:49 | 47.58622 | 8.32951 | 32899 ft | 389 kts | 180° |
| 2026-05-05 07:49 | 47.53230 | 8.33024 | 32901 ft | 389 kts | 180° |
| 2026-05-05 07:50 | 47.47797 | 8.33098 | 32896 ft | 389 kts | 180° |
| 2026-05-05 07:50 | 47.42406 | 8.33174 | 32895 ft | 389 kts | 180° |
| 2026-05-05 07:51 | 47.36996 | 8.33249 | 32894 ft | 388 kts | 180° |
| 2026-05-05 07:51 | 47.31599 | 8.33333 | 32891 ft | 389 kts | 179° |
| 2026-05-05 07:52 | 47.26223 | 8.33912 | 32891 ft | 390 kts | 175° |
| 2026-05-05 07:52 | 47.20831 | 8.34643 | 32899 ft | 389 kts | 175° |
| 2026-05-05 07:53 | 47.15461 | 8.35370 | 32896 ft | 390 kts | 175° |
| 2026-05-05 07:53 | 47.10958 | 8.35982 | 32901 ft | 390 kts | 175° |
| 2026-05-05 07:54 | 47.04652 | 8.36842 | 32897 ft | 390 kts | 176° |
| 2026-05-05 07:54 | 46.99277 | 8.37570 | 32902 ft | 390 kts | 175° |
| 2026-05-05 07:55 | 46.93911 | 8.38300 | 32897 ft | 390 kts | 175° |
| 2026-05-05 07:55 | 46.88501 | 8.39034 | 32898 ft | 390 kts | 175° |
| 2026-05-05 07:56 | 46.83098 | 8.39764 | 32894 ft | 390 kts | 175° |
| 2026-05-05 07:56 | 46.77674 | 8.40500 | 32901 ft | 391 kts | 175° |
| 2026-05-05 07:57 | 46.72279 | 8.41226 | 32906 ft | 391 kts | 175° |
| 2026-05-05 07:57 | 46.66887 | 8.41953 | 32933 ft | 391 kts | 175° |
| 2026-05-05 07:58 | 46.61500 | 8.42676 | 32933 ft | 391 kts | 175° |
| 2026-05-05 07:58 | 46.56063 | 8.43402 | 32931 ft | 391 kts | 175° |
| 2026-05-05 07:59 | 46.51585 | 8.44001 | 32912 ft | 390 kts | 175° |
| 2026-05-05 07:59 | 46.48002 | 8.44481 | 32053 ft | 393 kts | 175° |
| 2026-05-05 07:59 | 46.45250 | 8.44842 | 30857 ft | 402 kts | 174° |
| 2026-05-05 08:00 | 46.42462 | 8.45214 | 29812 ft | 407 kts | 174° |
| 2026-05-05 08:00 | 46.39668 | 8.45588 | 29147 ft | 403 kts | 175° |
| 2026-05-05 08:00 | 46.36898 | 8.45957 | 28549 ft | 397 kts | 175° |
| 2026-05-05 08:00 | 46.34182 | 8.46317 | 27889 ft | 393 kts | 175° |
| 2026-05-05 08:01 | 46.31465 | 8.46677 | 27206 ft | 389 kts | 175° |
| 2026-05-05 08:01 | 46.28788 | 8.47033 | 26517 ft | 386 kts | 175° |
| 2026-05-05 08:01 | 46.26132 | 8.47390 | 25838 ft | 383 kts | 175° |
| 2026-05-05 08:01 | 46.23506 | 8.47765 | 25178 ft | 379 kts | 174° |
| 2026-05-05 08:02 | 46.20899 | 8.48139 | 24535 ft | 376 kts | 174° |
| 2026-05-05 08:02 | 46.18337 | 8.48508 | 23890 ft | 373 kts | 174° |
| 2026-05-05 08:02 | 46.16604 | 8.48756 | 23473 ft | 371 kts | 175° |
| 2026-05-05 08:02 | 46.13227 | 8.49260 | 22701 ft | 366 kts | 173° |
| 2026-05-05 08:03 | 46.10739 | 8.49941 | 22087 ft | 365 kts | 167° |
| 2026-05-05 08:03 | 46.08339 | 8.50989 | 21458 ft | 363 kts | 162° |
| 2026-05-05 08:03 | 46.05988 | 8.52232 | 20883 ft | 361 kts | 161° |
| 2026-05-05 08:03 | 46.03640 | 8.53501 | 20312 ft | 358 kts | 161° |
| 2026-05-05 08:04 | 46.01326 | 8.54753 | 19731 ft | 356 kts | 161° |
| 2026-05-05 08:04 | 45.99025 | 8.55994 | 19155 ft | 355 kts | 161° |
| 2026-05-05 08:04 | 45.96735 | 8.57227 | 18576 ft | 353 kts | 161° |
| 2026-05-05 08:04 | 45.94442 | 8.58458 | 18007 ft | 351 kts | 161° |
| 2026-05-05 08:05 | 45.92170 | 8.59677 | 17600 ft | 345 kts | 161° |
| 2026-05-05 08:05 | 45.90019 | 8.61053 | 17246 ft | 340 kts | 153° |
| 2026-05-05 08:05 | 45.88057 | 8.62913 | 16860 ft | 337 kts | 145° |
| 2026-05-05 08:05 | 45.86842 | 8.64289 | 16611 ft | 334 kts | 143° |
| 2026-05-05 08:06 | 45.84463 | 8.67072 | 16114 ft | 327 kts | 144° |
| 2026-05-05 08:06 | 45.83305 | 8.68432 | 15876 ft | 324 kts | 144° |
| 2026-05-05 08:06 | 45.80992 | 8.71124 | 15411 ft | 317 kts | 144° |
| 2026-05-05 08:06 | 45.79290 | 8.73100 | 15077 ft | 312 kts | 144° |
| 2026-05-05 08:07 | 45.77640 | 8.74996 | 14669 ft | 303 kts | 145° |
| 2026-05-05 08:07 | 45.75929 | 8.76710 | 14048 ft | 295 kts | 151° |
| 2026-05-05 08:07 | 45.74189 | 8.78147 | 13339 ft | 290 kts | 154° |
| 2026-05-05 08:07 | 45.72448 | 8.79484 | 12622 ft | 285 kts | 154° |
| 2026-05-05 08:08 | 45.71296 | 8.80368 | 12227 ft | 279 kts | 154° |
| 2026-05-05 08:08 | 45.69085 | 8.82068 | 11695 ft | 266 kts | 154° |
| 2026-05-05 08:08 | 45.67462 | 8.83315 | 11360 ft | 265 kts | 154° |
| 2026-05-05 08:08 | 45.65835 | 8.84558 | 11028 ft | 263 kts | 153° |
| 2026-05-05 08:09 | 45.64760 | 8.85382 | 10813 ft | 262 kts | 152° |
| 2026-05-05 08:09 | 45.62687 | 8.86956 | 10688 ft | 244 kts | 156° |
| 2026-05-05 08:09 | 45.61146 | 8.87789 | 10577 ft | 235 kts | 165° |
| 2026-05-05 08:09 | 45.59569 | 8.88307 | 10266 ft | 234 kts | 169° |
| 2026-05-05 08:10 | 45.57972 | 8.88742 | 9966 ft | 233 kts | 170° |
| 2026-05-05 08:10 | 45.56377 | 8.89171 | 9670 ft | 231 kts | 169° |
| 2026-05-05 08:10 | 45.54806 | 8.89593 | 9353 ft | 231 kts | 169° |
| 2026-05-05 08:10 | 45.53242 | 8.90016 | 9053 ft | 230 kts | 169° |
| 2026-05-05 08:11 | 45.51696 | 8.90436 | 8975 ft | 218 kts | 169° |
| 2026-05-05 08:11 | 45.50239 | 8.90830 | 8965 ft | 208 kts | 169° |
| 2026-05-05 08:11 | 45.48823 | 8.91216 | 8764 ft | 207 kts | 169° |
| 2026-05-05 08:11 | 45.47414 | 8.91602 | 8493 ft | 207 kts | 169° |
| 2026-05-05 08:12 | 45.45997 | 8.91986 | 8208 ft | 207 kts | 169° |
| 2026-05-05 08:12 | 45.44587 | 8.92368 | 7929 ft | 207 kts | 169° |
| 2026-05-05 08:12 | 45.43169 | 8.92754 | 7656 ft | 207 kts | 169° |
| 2026-05-05 08:12 | 45.41756 | 8.93137 | 7386 ft | 207 kts | 169° |
| 2026-05-05 08:13 | 45.40340 | 8.93362 | 7077 ft | 209 kts | 187° |
| 2026-05-05 08:13 | 45.39050 | 8.92488 | 6706 ft | 212 kts | 223° |
| 2026-05-05 08:13 | 45.38334 | 8.90659 | 6353 ft | 215 kts | 255° |
| 2026-05-05 08:13 | 45.38077 | 8.88588 | 6006 ft | 211 kts | 258° |
| 2026-05-05 08:14 | 45.37823 | 8.86560 | 5657 ft | 207 kts | 257° |
| 2026-05-05 08:14 | 45.37561 | 8.84584 | 5289 ft | 203 kts | 257° |
| 2026-05-05 08:14 | 45.37307 | 8.82628 | 4960 ft | 198 kts | 263° |
| 2026-05-05 08:14 | 45.37543 | 8.80787 | 4593 ft | 193 kts | 302° |
| 2026-05-05 08:15 | 45.38547 | 8.79636 | 4142 ft | 190 kts | 343° |
| 2026-05-05 08:15 | 45.39838 | 8.79353 | 4008 ft | 187 kts | 359° |
| 2026-05-05 08:15 | 45.41158 | 8.79201 | 4007 ft | 189 kts | 355° |
| 2026-05-05 08:15 | 45.42463 | 8.78965 | 4008 ft | 189 kts | 354° |
| 2026-05-05 08:16 | 45.43738 | 8.78671 | 3905 ft | 185 kts | 351° |
| 2026-05-05 08:16 | 45.44999 | 8.78346 | 3673 ft | 180 kts | 351° |
| 2026-05-05 08:16 | 45.46199 | 8.78021 | 3428 ft | 176 kts | 352° |
| 2026-05-05 08:16 | 45.47392 | 8.77690 | 3218 ft | 172 kts | 350° |
| 2026-05-05 08:17 | 45.48573 | 8.77362 | 3192 ft | 172 kts | 351° |
| 2026-05-05 08:17 | 45.49742 | 8.77036 | 3058 ft | 170 kts | 351° |
| 2026-05-05 08:17 | 45.50862 | 8.76724 | 2846 ft | 156 kts | 351° |
| 2026-05-05 08:17 | 45.51886 | 8.76439 | 2644 ft | 144 kts | 350° |
| 2026-05-05 08:18 | 45.52822 | 8.76178 | 2437 ft | 132 kts | 351° |
| 2026-05-05 08:18 | 45.53704 | 8.75934 | 2259 ft | 128 kts | 350° |
| 2026-05-05 08:18 | 45.54582 | 8.75691 | 2100 ft | 127 kts | 350° |
| 2026-05-05 08:18 | 45.55444 | 8.75453 | 1939 ft | 126 kts | 350° |
| 2026-05-05 08:19 | 45.56311 | 8.75213 | 1773 ft | 126 kts | 349° |
| 2026-05-05 08:19 | 45.57171 | 8.74976 | 1606 ft | 126 kts | 349° |
| 2026-05-05 08:19 | 45.58032 | 8.74737 | 1436 ft | 125 kts | 349° |
| 2026-05-05 08:19 | 45.58878 | 8.74503 | 1266 ft | 125 kts | 349° |
| 2026-05-05 08:20 | 45.59733 | 8.74266 | 1097 ft | 125 kts | 350° |
| 2026-05-05 08:20 | 45.60587 | 8.74028 | 929 ft | 125 kts | 349° |
| 2026-05-05 08:20 | 45.61429 | 8.73797 | 768 ft | 124 kts | 349° |
| 2026-05-05 08:20 | 45.62272 | 8.73564 | 714 ft | 113 kts | 348° |
| 2026-05-05 08:21 | 45.62878 | 8.73401 | 727 ft | 64 kts | 349° |
| 2026-05-05 08:21 | 45.63163 | 8.73233 | 734 ft | 35 kts | 319° |
| 2026-05-05 08:21 | 45.63290 | 8.73010 | 738 ft | 26 kts | 304° |
| 2026-05-05 08:21 | 45.63388 | 8.72803 | 741 ft | 23 kts | 295° |
| 2026-05-05 08:22 | 45.63402 | 8.72592 | 743 ft | 16 kts | 258° |
| 2026-05-05 08:22 | 45.63381 | 8.72432 | 744 ft | 16 kts | 259° |
| 2026-05-05 08:22 | 45.63363 | 8.72294 | 744 ft | 12 kts | 259° |
| 2026-05-05 08:22 | 45.63345 | 8.72158 | 744 ft | 16 kts | 260° |
| 2026-05-05 08:23 | 45.63318 | 8.71977 | 745 ft | 19 kts | 260° |
| 2026-05-05 08:23 | 45.63261 | 8.71866 | 744 ft | 15 kts | 164° |
| 2026-05-05 08:23 | 45.63145 | 8.71899 | 741 ft | 18 kts | 172° |
| 2026-05-05 08:23 | 45.63015 | 8.71931 | 739 ft | 19 kts | 184° |
| 2026-05-05 08:24 | 45.62965 | 8.71767 | 738 ft | 19 kts | 260° |
| 2026-05-05 08:24 | 45.62944 | 8.71586 | 738 ft | 8 kts | 262° |
| 2026-05-05 08:24 | 45.62960 | 8.71563 | 738 ft | 5 kts | 345° |
| 2026-05-05 08:24 | 45.63005 | 8.71549 | 739 ft | 3 kts | 349° |
| 2026-05-05 08:25 | 45.63009 | 8.71548 | 739 ft | 0 kts | 349° |
| 2026-05-05 08:25 | 45.63011 | 8.71548 | 739 ft | 0 kts | 349° |
| 2026-05-05 08:25 | 45.63012 | 8.71548 | 739 ft | 0 kts | 349° |
| 2026-05-05 08:25 | 45.63012 | 8.71547 | 739 ft | 0 kts | 349° |